Time;durP1;ratioP1;P1;durP2;ratioP2;P2;SDS_P1;SDS_P2;PMS_P1;PMS_P2;Temp;Humidity;BMP_temperature;BMP_pressure;BME280_temperature;BME280_humidity;BME280_pressure;Samples;Min_cycle;Max_cycle;Signal;HPM_P1;HPM_P2
2022/07/12 00:02:17;;;;;;;3.83;2.53;;;17.70;99.90;;;;;;5058650;28;20492;-45
2022/07/12 00:04:44;;;;;;;4.53;2.83;;;17.70;99.90;;;;;;5057263;28;20475;-53
2022/07/12 00:07:11;;;;;;;4.63;2.13;;;17.70;99.90;;;;;;5049916;28;20480;-43
2022/07/12 00:09:38;;;;;;;2.30;1.73;;;17.70;99.90;;;;;;5051179;28;20543;-46
2022/07/12 00:12:16;;;;;;;4.57;2.30;;;17.60;99.90;;;;;;5058745;28;20527;-48
2022/07/12 00:14:43;;;;;;;3.33;2.07;;;17.70;99.90;;;;;;5058522;28;20439;-47
2022/07/12 00:17:10;;;;;;;6.87;3.33;;;17.60;99.90;;;;;;5058913;28;20446;-40
2022/07/12 00:19:40;;;;;;;3.00;1.87;;;17.60;99.90;;;;;;5058370;28;20413;-48
2022/07/12 00:22:08;;;;;;;7.87;1.83;;;17.60;99.90;;;;;;5058179;28;20428;-50
2022/07/12 00:24:35;;;;;;;2.80;1.77;;;17.50;99.90;;;;;;5057985;28;20444;-35
2022/07/12 00:27:02;;;;;;;2.00;1.73;;;17.50;99.90;;;;;;5057221;28;20562;-51
2022/07/12 00:29:28;;;;;;;6.47;2.27;;;17.50;99.90;;;;;;5057978;28;20468;-51
2022/07/12 00:31:55;;;;;;;5.63;1.97;;;17.50;99.90;;;;;;5058370;28;20468;-45
2022/07/12 00:34:22;;;;;;;3.43;1.87;;;17.40;99.90;;;;;;5058206;28;20443;-45
2022/07/12 00:36:50;;;;;;;2.90;2.03;;;17.40;99.90;;;;;;5057744;28;20916;-45
2022/07/12 00:39:17;;;;;;;2.93;2.10;;;17.30;99.90;;;;;;5057884;28;20475;-49
2022/07/12 00:41:44;;;;;;;5.53;4.43;;;17.30;99.90;;;;;;5058061;28;20431;-55
2022/07/12 00:44:11;;;;;;;2.80;1.83;;;17.30;99.90;;;;;;5058585;28;20450;-42
2022/07/12 00:46:37;;;;;;;3.13;2.10;;;17.30;99.90;;;;;;5053423;28;20507;-57
2022/07/12 00:49:04;;;;;;;2.50;2.10;;;17.30;99.90;;;;;;5053148;28;20492;-47
2022/07/12 00:51:31;;;;;;;2.47;1.80;;;17.20;99.90;;;;;;5058165;28;20444;-43
2022/07/12 00:54:02;;;;;;;3.67;2.07;;;17.30;99.90;;;;;;5116659;22;20549;-46
2022/07/12 00:56:29;;;;;;;5.03;2.20;;;17.20;99.90;;;;;;5076983;28;20462;-56
2022/07/12 00:58:55;;;;;;;3.07;1.87;;;17.20;99.90;;;;;;5076951;28;20467;-57
2022/07/12 01:01:23;;;;;;;3.37;2.20;;;17.10;99.90;;;;;;5077233;28;20435;-49
2022/07/12 01:03:50;;;;;;;3.50;2.37;;;17.10;99.90;;;;;;5077076;28;20439;-46
2022/07/12 01:06:20;;;;;;;2.47;1.60;;;17.00;99.90;;;;;;5076696;28;20538;-40
2022/07/12 01:08:47;;;;;;;6.13;3.30;;;17.00;99.90;;;;;;5076683;28;20804;-46
2022/07/12 01:11:16;;;;;;;4.03;2.37;;;17.00;99.90;;;;;;5077087;28;20450;-53
2022/07/12 01:13:44;;;;;;;2.37;1.60;;;17.00;99.90;;;;;;5077024;28;20550;-45
2022/07/12 01:16:14;;;;;;;2.20;1.50;;;17.00;99.90;;;;;;5069724;28;20458;-58
2022/07/12 01:18:41;;;;;;;3.03;1.90;;;17.00;99.90;;;;;;5067559;28;20440;-53
2022/07/12 01:21:10;;;;;;;4.37;1.70;;;16.90;99.90;;;;;;5076742;28;20467;-55
2022/07/12 01:23:41;;;;;;;1.90;1.40;;;16.90;99.90;;;;;;5068529;28;20507;-50
2022/07/12 01:26:07;;;;;;;2.27;1.73;;;16.90;99.90;;;;;;5076805;28;20467;-47
2022/07/12 01:28:37;;;;;;;3.60;2.00;;;16.90;99.90;;;;;;5076012;28;20489;-48
2022/07/12 01:31:04;;;;;;;2.40;1.40;;;16.90;99.90;;;;;;5071327;28;20459;-49
2022/07/12 01:33:33;;;;;;;2.50;1.40;;;16.90;99.90;;;;;;5076308;28;20459;-44
2022/07/12 01:36:01;;;;;;;3.67;2.03;;;16.90;99.90;;;;;;5072957;28;20453;-49
2022/07/12 01:38:28;;;;;;;3.20;1.57;;;16.90;99.90;;;;;;5070519;28;20466;-52
2022/07/12 01:40:56;;;;;;;4.63;1.50;;;16.80;99.90;;;;;;5076030;28;20443;-43
2022/07/12 01:43:23;;;;;;;2.20;1.20;;;16.80;99.90;;;;;;5075395;28;20450;-47
2022/07/12 01:45:50;;;;;;;10.03;2.20;;;16.80;99.90;;;;;;5075824;28;20439;-49
2022/07/12 01:48:16;;;;;;;3.00;1.80;;;16.80;99.90;;;;;;5065525;28;20511;-46
2022/07/12 01:50:43;;;;;;;2.40;1.57;;;16.80;99.90;;;;;;5070341;28;20443;-51
2022/07/12 01:53:14;;;;;;;2.73;2.07;;;16.80;99.90;;;;;;5075771;28;20437;-52
2022/07/12 01:55:41;;;;;;;3.07;2.27;;;16.80;99.90;;;;;;5076438;28;20438;-46
2022/07/12 01:58:10;;;;;;;3.27;1.80;;;16.80;99.90;;;;;;5075333;28;20507;-45
2022/07/12 02:00:36;;;;;;;2.87;1.50;;;16.70;99.90;;;;;;5075114;28;20482;-52
2022/07/12 02:03:03;;;;;;;2.00;1.73;;;16.70;99.90;;;;;;5075026;28;20438;-49
2022/07/12 02:05:30;;;;;;;2.13;1.60;;;16.70;99.90;;;;;;5074511;28;20474;-49
2022/07/12 02:07:58;;;;;;;7.33;2.10;;;16.70;99.90;;;;;;5074894;28;20479;-44
2022/07/12 02:10:28;;;;;;;4.23;1.80;;;16.70;99.90;;;;;;5074436;28;20467;-50
2022/07/12 02:12:54;;;;;;;3.97;2.53;;;16.70;99.90;;;;;;5074611;28;20478;-48
2022/07/12 02:15:23;;;;;;;3.67;1.80;;;16.70;99.90;;;;;;5074600;28;20430;-54
2022/07/12 02:17:49;;;;;;;2.43;1.73;;;16.60;99.90;;;;;;5074222;28;20460;-49
2022/07/12 02:20:16;;;;;;;9.03;2.27;;;16.60;99.90;;;;;;5074506;28;20454;-44
2022/07/12 02:22:43;;;;;;;4.20;2.10;;;16.60;99.90;;;;;;5074315;28;20491;-52
2022/07/12 02:25:10;;;;;;;2.97;1.63;;;16.50;99.90;;;;;;5074696;28;20475;-59
2022/07/12 02:27:38;;;;;;;2.83;1.87;;;16.50;99.90;;;;;;5074391;28;20559;-54
2022/07/12 02:30:07;;;;;;;4.67;1.80;;;16.40;99.90;;;;;;5074339;28;20650;-49
2022/07/12 02:32:35;;;;;;;5.93;1.90;;;16.40;99.90;;;;;;5074525;28;20452;-49
2022/07/12 02:35:04;;;;;;;2.37;1.73;;;16.40;99.90;;;;;;5074072;28;20467;-55
2022/07/12 02:37:30;;;;;;;3.50;1.80;;;16.30;99.90;;;;;;5074375;28;20518;-46
2022/07/12 02:42:39;;;;;;;2.20;1.50;;;16.30;99.90;;;;;;5073627;28;20412;-44
2022/07/12 02:45:06;;;;;;;2.47;2.00;;;16.30;99.90;;;;;;5074224;28;20502;-50
2022/07/12 02:47:36;;;;;;;3.27;1.63;;;16.30;99.90;;;;;;5074302;28;20455;-49
2022/07/12 02:50:04;;;;;;;7.03;2.20;;;16.30;99.90;;;;;;5074220;28;20527;-52
2022/07/12 02:52:31;;;;;;;2.10;1.87;;;16.20;99.90;;;;;;5074233;28;20428;-43
2022/07/12 02:54:57;;;;;;;5.93;2.10;;;16.20;99.90;;;;;;5074234;28;20447;-42
2022/07/12 02:57:24;;;;;;;5.80;2.07;;;16.20;99.90;;;;;;5074822;28;20441;-45
2022/07/12 02:59:51;;;;;;;2.13;1.50;;;16.20;99.90;;;;;;5073457;28;20447;-57
2022/07/12 03:02:18;;;;;;;4.83;1.80;;;16.10;99.90;;;;;;5075007;28;20456;-47
2022/07/12 03:04:46;;;;;;;2.33;1.47;;;16.10;99.90;;;;;;5074171;28;20530;-53
2022/07/12 03:07:13;;;;;;;2.63;2.07;;;16.10;99.90;;;;;;5066304;28;20485;-50
2022/07/12 03:09:40;;;;;;;2.07;1.60;;;16.10;99.90;;;;;;5074361;28;20483;-54
2022/07/12 03:12:07;;;;;;;2.33;1.80;;;16.00;99.90;;;;;;5074296;28;20487;-47
2022/07/12 03:14:34;;;;;;;2.33;1.60;;;16.00;99.90;;;;;;5074768;28;20445;-46
2022/07/12 03:17:01;;;;;;;3.13;1.33;;;16.00;99.90;;;;;;5075284;28;20451;-45
2022/07/12 03:19:28;;;;;;;3.70;2.43;;;16.00;99.90;;;;;;5066742;28;20445;-58
2022/07/12 03:21:56;;;;;;;1.73;1.43;;;15.90;99.90;;;;;;5065011;28;20435;-45
2022/07/12 03:24:22;;;;;;;3.40;1.70;;;15.90;99.90;;;;;;5070092;28;20506;-50
2022/07/12 03:26:51;;;;;;;2.80;1.70;;;15.90;99.90;;;;;;5067991;28;20538;-54
2022/07/12 03:29:17;;;;;;;2.17;1.97;;;15.90;99.90;;;;;;5065057;28;20491;-43
2022/07/12 03:31:44;;;;;;;2.90;1.43;;;15.90;99.90;;;;;;5068034;28;20542;-49
2022/07/12 03:34:11;;;;;;;2.00;1.57;;;15.80;99.90;;;;;;5073401;28;20439;-49
2022/07/12 03:36:38;;;;;;;5.77;1.83;;;15.70;99.90;;;;;;5067077;28;20458;-48
2022/07/12 03:39:06;;;;;;;2.80;1.63;;;15.70;99.90;;;;;;5073408;28;20447;-51
2022/07/12 03:41:33;;;;;;;2.10;1.60;;;15.70;99.90;;;;;;5073057;28;20445;-49
2022/07/12 03:44:00;;;;;;;3.47;1.60;;;15.70;99.90;;;;;;5073411;28;20459;-48
2022/07/12 03:46:26;;;;;;;1.83;1.23;;;15.70;99.90;;;;;;5072324;28;20506;-49
2022/07/12 03:48:53;;;;;;;3.90;1.47;;;15.70;99.90;;;;;;5066296;28;20538;-51
2022/07/12 03:51:22;;;;;;;2.43;1.87;;;15.70;99.90;;;;;;5073863;28;20519;-50
2022/07/12 03:53:49;;;;;;;2.23;1.60;;;15.80;99.90;;;;;;5073597;28;20506;-46
2022/07/12 03:58:58;;;;;;;2.23;1.70;;;15.80;99.90;;;;;;5072966;28;20435;-47
2022/07/12 04:01:25;;;;;;;2.03;1.10;;;15.80;99.90;;;;;;5067184;28;21060;-54
2022/07/12 04:03:51;;;;;;;5.13;1.60;;;15.80;99.90;;;;;;5068714;28;20486;-54
2022/07/12 04:06:18;;;;;;;2.03;1.40;;;15.80;99.90;;;;;;5066636;28;20462;-48
2022/07/12 04:08:50;;;;;;;1.63;1.40;;;15.90;99.90;;;;;;5073234;28;20487;-51
2022/07/12 04:11:18;;;;;;;2.00;1.60;;;15.90;99.90;;;;;;5076381;28;20443;-51
2022/07/12 04:13:45;;;;;;;3.00;1.77;;;15.90;99.90;;;;;;5069812;28;20474;-50
2022/07/12 04:16:12;;;;;;;1.57;1.47;;;15.90;99.90;;;;;;5077276;28;20432;-45
2022/07/12 04:18:39;;;;;;;1.77;1.37;;;16.00;99.90;;;;;;5076901;28;20451;-45
2022/07/12 04:21:06;;;;;;;2.03;1.30;;;16.00;99.90;;;;;;5077245;28;20534;-50
2022/07/12 04:23:33;;;;;;;3.30;1.60;;;16.10;99.90;;;;;;5077386;28;20498;-51
2022/07/12 04:26:01;;;;;;;2.90;1.40;;;16.10;99.90;;;;;;5077022;28;20495;-50
2022/07/12 04:28:29;;;;;;;5.23;1.60;;;16.20;99.90;;;;;;5077093;28;20526;-52
2022/07/12 04:30:56;;;;;;;4.33;1.80;;;16.20;99.90;;;;;;5077004;28;20530;-50
2022/07/12 04:33:23;;;;;;;2.60;1.40;;;16.20;99.90;;;;;;5069020;28;20501;-51
2022/07/12 04:35:51;;;;;;;7.20;1.57;;;16.30;99.90;;;;;;5076840;28;20443;-47
2022/07/12 04:38:18;;;;;;;3.80;1.77;;;16.30;99.90;;;;;;5076757;28;20464;-47
2022/07/12 04:40:45;;;;;;;2.83;1.20;;;16.30;99.90;;;;;;5071310;28;20447;-48
2022/07/12 04:43:12;;;;;;;3.13;1.30;;;16.40;99.90;;;;;;5076558;28;20462;-50
2022/07/12 04:45:43;;;;;;;3.67;1.50;;;16.40;99.90;;;;;;5075895;28;20514;-51
2022/07/12 04:48:10;;;;;;;2.57;1.43;;;16.40;99.90;;;;;;5076074;28;20467;-47
2022/07/12 04:50:39;;;;;;;4.37;1.57;;;16.50;99.90;;;;;;5075681;28;20463;-48
2022/07/12 04:53:06;;;;;;;2.70;1.40;;;16.50;99.90;;;;;;5075982;28;20463;-46
2022/07/12 04:55:33;;;;;;;2.27;1.43;;;16.60;99.90;;;;;;5076403;28;20443;-48
2022/07/12 04:58:00;;;;;;;1.93;1.27;;;16.60;99.90;;;;;;5076212;28;20451;-53
2022/07/12 05:00:26;;;;;;;1.70;1.50;;;16.70;99.90;;;;;;5076725;28;20455;-49
2022/07/12 05:02:55;;;;;;;1.87;1.20;;;16.70;99.90;;;;;;5075909;28;20440;-51
2022/07/12 05:05:21;;;;;;;2.53;1.70;;;16.80;99.90;;;;;;5076638;28;20475;-49
2022/07/12 05:07:48;;;;;;;2.67;1.80;;;16.80;99.90;;;;;;5076138;28;20526;-42
2022/07/12 05:10:15;;;;;;;6.23;1.97;;;16.90;99.90;;;;;;5076663;28;20510;-44
2022/07/12 05:12:42;;;;;;;1.73;1.10;;;16.90;99.90;;;;;;5076155;28;20423;-52
2022/07/12 05:15:09;;;;;;;2.47;1.13;;;17.00;99.90;;;;;;5076006;28;20517;-48
2022/07/12 05:17:36;;;;;;;3.23;1.27;;;17.00;99.90;;;;;;5075656;28;20471;-47
2022/07/12 05:20:06;;;;;;;4.30;1.40;;;17.10;99.90;;;;;;5076166;28;20499;-55
2022/07/12 05:22:37;;;;;;;5.00;1.63;;;17.10;99.90;;;;;;5074378;28;20497;-45
2022/07/12 05:25:05;;;;;;;2.70;1.57;;;17.10;99.90;;;;;;5075957;28;20428;-54
2022/07/12 05:27:32;;;;;;;2.90;1.33;;;17.20;99.90;;;;;;5076088;28;21037;-52
2022/07/12 05:29:59;;;;;;;3.63;1.37;;;17.30;99.90;;;;;;5075844;28;20539;-53
2022/07/12 05:32:26;;;;;;;5.63;1.73;;;17.30;99.90;;;;;;5075830;28;20522;-47
2022/07/12 05:34:54;;;;;;;2.67;1.50;;;17.30;99.90;;;;;;5076132;28;20471;-46
2022/07/12 05:37:24;;;;;;;4.60;1.63;;;17.40;99.90;;;;;;5067888;28;20453;-46
2022/07/12 05:39:51;;;;;;;2.77;1.20;;;17.40;99.90;;;;;;5076222;28;20427;-51
2022/07/12 05:42:18;;;;;;;2.80;1.47;;;17.50;99.90;;;;;;5076270;28;20443;-55
2022/07/12 05:44:45;;;;;;;2.97;1.93;;;17.50;99.90;;;;;;5074206;28;20451;-52
2022/07/12 05:47:12;;;;;;;5.90;1.93;;;17.60;99.90;;;;;;5075932;28;20508;-48
2022/07/12 05:49:39;;;;;;;1.50;1.00;;;17.60;99.90;;;;;;5076117;28;20483;-52
2022/07/12 05:54:48;;;;;;;4.20;1.40;;;17.80;99.90;;;;;;5063732;28;20426;-45
2022/07/12 05:57:15;;;;;;;3.20;1.30;;;17.90;99.90;;;;;;5075372;28;20527;-49
2022/07/12 05:59:42;;;;;;;4.70;1.73;;;18.00;99.90;;;;;;5075083;28;20530;-54
2022/07/12 06:02:09;;;;;;;3.60;1.60;;;18.10;99.90;;;;;;5066709;28;20447;-50
2022/07/12 06:04:36;;;;;;;2.33;1.20;;;18.20;99.90;;;;;;5074564;28;20535;-45
2022/07/12 06:07:03;;;;;;;2.40;1.10;;;18.20;99.90;;;;;;5073388;28;20453;-42
2022/07/12 06:09:31;;;;;;;2.10;1.20;;;18.30;99.90;;;;;;5054060;28;21034;-41
2022/07/12 06:11:59;;;;;;;2.00;1.33;;;18.30;99.90;;;;;;5049917;28;20477;-43
2022/07/12 06:14:27;;;;;;;1.20;1.10;;;18.40;99.90;;;;;;5054263;28;20511;-41
2022/07/12 06:16:54;;;;;;;1.47;1.20;;;18.40;99.90;;;;;;5053957;28;20468;-42
2022/07/12 06:19:23;;;;;;;2.50;1.20;;;18.50;99.90;;;;;;5045075;28;20538;-43
2022/07/12 06:21:50;;;;;;;3.30;1.20;;;18.60;99.90;;;;;;5046344;28;20476;-47
2022/07/12 06:24:16;;;;;;;2.50;1.10;;;18.60;99.90;;;;;;5055143;28;20425;-45
2022/07/12 06:26:43;;;;;;;4.33;0.97;;;18.70;99.90;;;;;;5054300;28;20428;-50
2022/07/12 06:29:13;;;;;;;2.63;1.17;;;18.70;99.90;;;;;;5054209;28;20481;-47
2022/07/12 06:31:40;;;;;;;2.87;1.27;;;18.80;99.90;;;;;;5054696;28;20488;-48
2022/07/12 06:34:07;;;;;;;3.10;1.20;;;19.00;99.90;;;;;;5054574;28;20543;-47
2022/07/12 06:36:33;;;;;;;1.63;1.30;;;19.00;99.90;;;;;;5054467;28;20472;-48
2022/07/12 06:39:00;;;;;;;1.30;1.10;;;19.00;99.90;;;;;;5053769;28;20434;-47
2022/07/12 06:41:29;;;;;;;2.80;1.20;;;19.10;99.90;;;;;;5053811;28;20460;-48
2022/07/12 06:43:55;;;;;;;1.50;1.10;;;19.20;99.90;;;;;;5054416;28;20981;-41
2022/07/12 06:46:24;;;;;;;1.50;1.33;;;19.30;99.90;;;;;;5054465;28;20444;-44
2022/07/12 06:48:50;;;;;;;3.60;1.43;;;19.30;99.90;;;;;;5053926;28;20456;-46
2022/07/12 06:51:17;;;;;;;2.13;1.43;;;19.40;99.90;;;;;;5042886;28;20441;-52
2022/07/12 06:53:44;;;;;;;5.80;1.53;;;19.50;99.90;;;;;;5054083;28;20531;-47
2022/07/12 06:56:11;;;;;;;1.50;1.40;;;19.60;99.90;;;;;;5053747;28;20479;-48
2022/07/12 06:58:38;;;;;;;3.53;1.30;;;19.60;99.90;;;;;;5054055;28;20521;-51
2022/07/12 07:01:04;;;;;;;3.70;1.97;;;19.70;99.90;;;;;;5053793;28;20447;-49
2022/07/12 07:03:34;;;;;;;3.97;1.80;;;19.80;99.90;;;;;;5074949;28;20510;-39
2022/07/12 07:06:01;;;;;;;1.70;1.30;;;19.90;99.90;;;;;;5092917;28;20498;-47
2022/07/12 07:08:28;;;;;;;5.17;1.77;;;19.90;99.90;;;;;;5094561;28;20494;-41
2022/07/12 07:10:55;;;;;;;3.40;1.90;;;20.00;99.90;;;;;;5092914;28;20477;-49
2022/07/12 07:13:22;;;;;;;3.57;1.30;;;20.20;99.90;;;;;;5085402;28;20470;-42
2022/07/12 07:15:48;;;;;;;1.90;1.23;;;20.30;99.90;;;;;;5094698;28;20493;-47
2022/07/12 07:18:15;;;;;;;2.80;1.50;;;20.60;99.90;;;;;;5094522;28;20490;-54
2022/07/12 07:20:43;;;;;;;5.90;2.03;;;20.70;99.90;;;;;;5094712;28;20442;-46
2022/07/12 07:23:14;;;;;;;3.27;2.13;;;20.90;99.90;;;;;;5094310;28;20467;-46
2022/07/12 07:25:40;;;;;;;3.00;1.50;;;21.50;99.90;;;;;;5093541;28;20433;-44
2022/07/12 07:28:07;;;;;;;2.30;1.30;;;23.00;99.90;;;;;;5087795;28;20437;-44
2022/07/12 07:33:18;;;;;;;1.80;1.10;;;25.90;90.50;;;;;;5093839;28;20425;-51
2022/07/12 07:35:47;;;;;;;3.13;1.10;;;27.80;79.20;;;;;;5095031;28;20545;-49
2022/07/12 07:38:13;;;;;;;6.00;2.60;;;29.10;71.40;;;;;;5089282;28;20549;-56
2022/07/12 07:40:40;;;;;;;6.97;1.57;;;30.30;64.80;;;;;;5089529;28;20457;-48
2022/07/12 07:43:07;;;;;;;2.37;1.27;;;31.50;59.10;;;;;;5094777;28;20429;-49
2022/07/12 07:45:34;;;;;;;5.00;1.70;;;32.50;55.00;;;;;;5097603;28;20457;-55
2022/07/12 07:48:01;;;;;;;1.70;1.00;;;33.30;51.80;;;;;;5087431;28;20748;-57
2022/07/12 07:50:28;;;;;;;1.43;1.27;;;33.80;49.70;;;;;;5099282;28;20561;-52
2022/07/12 07:52:56;;;;;;;2.63;1.97;;;34.10;48.50;;;;;;5088989;28;20548;-52
2022/07/12 07:55:23;;;;;;;4.23;3.40;;;34.80;46.60;;;;;;5089878;28;20445;-42
2022/07/12 07:57:50;;;;;;;3.33;1.90;;;35.20;45.50;;;;;;5097129;28;20497;-50
2022/07/12 08:00:17;;;;;;;1.67;1.30;;;35.50;44.30;;;;;;5097926;28;20525;-54
2022/07/12 08:02:43;;;;;;;2.60;1.47;;;35.90;43.00;;;;;;5098033;28;20482;-52
2022/07/12 08:05:10;;;;;;;3.67;1.60;;;36.10;42.00;;;;;;5097476;28;20518;-55
2022/07/12 08:07:37;;;;;;;2.40;1.60;;;36.10;41.50;;;;;;5084722;28;20434;-48
2022/07/12 08:10:06;;;;;;;3.33;1.67;;;35.50;40.90;;;;;;5097993;28;20466;-48
2022/07/12 08:12:33;;;;;;;1.90;1.30;;;35.30;41.80;;;;;;5097859;28;20514;-53
2022/07/12 08:15:01;;;;;;;2.23;1.50;;;35.60;41.70;;;;;;5097162;28;20510;-48
2022/07/12 08:17:28;;;;;;;2.37;1.37;;;35.70;41.20;;;;;;5096925;28;20470;-45
2022/07/12 08:19:55;;;;;;;6.63;1.20;;;35.60;41.20;;;;;;5096994;28;20441;-46
2022/07/12 08:22:21;;;;;;;2.60;1.40;;;35.30;41.30;;;;;;5097074;28;20470;-48
2022/07/12 08:24:49;;;;;;;8.17;1.77;;;35.20;41.50;;;;;;5097189;28;20451;-54
2022/07/12 08:27:17;;;;;;;3.30;1.40;;;35.00;42.80;;;;;;5097352;28;20434;-49
2022/07/12 08:29:44;;;;;;;1.60;1.20;;;35.20;41.70;;;;;;5096562;28;20465;-51
2022/07/12 08:32:11;;;;;;;1.90;1.13;;;35.40;40.90;;;;;;5096706;28;20469;-46
2022/07/12 08:34:38;;;;;;;1.77;1.30;;;35.10;40.20;;;;;;5096773;28;20466;-44
2022/07/12 08:37:05;;;;;;;2.37;1.23;;;35.00;40.90;;;;;;5097147;28;20439;-44
2022/07/12 08:39:33;;;;;;;2.00;1.50;;;35.20;41.30;;;;;;5096657;28;20434;-48
2022/07/12 08:42:00;;;;;;;1.87;1.10;;;35.40;41.50;;;;;;5096452;28;20419;-48
2022/07/12 08:44:29;;;;;;;1.73;1.30;;;36.00;40.40;;;;;;5096831;28;20466;-46
2022/07/12 08:46:55;;;;;;;1.80;1.30;;;36.00;39.50;;;;;;5096584;28;20485;-48
2022/07/12 08:49:22;;;;;;;1.57;1.37;;;36.00;40.00;;;;;;5096520;28;20489;-50
2022/07/12 08:51:51;;;;;;;4.90;1.10;;;36.10;40.00;;;;;;5096322;28;20522;-53
2022/07/12 08:54:18;;;;;;;1.60;1.20;;;35.90;39.50;;;;;;5096853;28;20446;-47
2022/07/12 08:56:45;;;;;;;3.20;1.87;;;35.70;39.20;;;;;;5095523;28;20449;-42
2022/07/12 08:59:17;;;;;;;1.40;1.10;;;35.90;40.10;;;;;;5096747;28;21074;-49
2022/07/12 09:01:47;;;;;;;4.60;1.70;;;35.80;40.10;;;;;;5096272;28;20434;-48
2022/07/12 09:04:15;;;;;;;2.20;1.07;;;35.90;40.20;;;;;;5095925;28;20478;-43
2022/07/12 09:06:42;;;;;;;2.60;1.40;;;35.70;39.30;;;;;;5096242;28;20995;-48
2022/07/12 09:09:09;;;;;;;2.80;1.20;;;35.60;39.30;;;;;;5096063;28;20470;-50
2022/07/12 09:11:47;;;;;;;1.90;1.40;;;35.50;39.30;;;;;;5096791;28;20496;-47
2022/07/12 09:14:19;;;;;;;3.70;1.37;;;35.70;39.20;;;;;;5076444;28;20495;-44
2022/07/12 09:16:59;;;;;;;1.77;1.03;;;35.60;37.90;;;;;;5075671;28;20432;-42
2022/07/12 09:19:26;;;;;;;1.60;1.30;;;35.60;38.60;;;;;;5074093;28;20434;-47
2022/07/12 09:21:54;;;;;;;2.33;1.30;;;35.70;38.30;;;;;;5076503;28;20471;-44
2022/07/12 09:24:24;;;;;;;1.77;1.00;;;35.80;38.60;;;;;;5076608;28;20474;-48
2022/07/12 09:26:55;;;;;;;1.73;1.20;;;35.80;38.30;;;;;;5076586;28;20498;-48
2022/07/12 09:29:23;;;;;;;4.03;1.20;;;35.60;38.20;;;;;;5076502;28;20854;-49
2022/07/12 09:37:24;;;;;;;2.50;1.20;;;35.30;39.60;;;;;;5075022;28;20471;-37
2022/07/12 09:39:52;;;;;;;2.00;1.10;;;35.50;40.00;;;;;;5074389;28;20451;-43
2022/07/12 09:42:20;;;;;;;1.80;1.03;;;35.60;40.10;;;;;;5074356;28;20916;-38
2022/07/12 09:44:47;;;;;;;1.63;1.33;;;35.70;39.90;;;;;;5075825;28;20466;-51
2022/07/12 09:47:16;;;;;;;1.77;1.37;;;35.40;39.80;;;;;;5076013;28;20455;-42
2022/07/12 09:49:44;;;;;;;2.40;1.10;;;35.10;40.10;;;;;;5073520;28;20443;-43
2022/07/12 09:52:13;;;;;;;3.10;1.70;;;35.20;40.50;;;;;;5075617;28;20431;-53
2022/07/12 09:54:42;;;;;;;3.10;2.00;;;35.30;40.10;;;;;;5073861;28;20523;-46
2022/07/12 09:57:19;;;;;;;2.27;1.30;;;35.20;39.60;;;;;;5074607;28;20459;-50
2022/07/12 09:59:46;;;;;;;1.83;1.40;;;35.40;38.70;;;;;;5074446;28;20423;-41
2022/07/12 10:02:15;;;;;;;1.80;1.47;;;35.50;38.30;;;;;;5074935;28;20447;-40
2022/07/12 10:04:43;;;;;;;1.83;1.50;;;35.20;37.30;;;;;;5074968;28;20446;-49
2022/07/12 10:07:13;;;;;;;1.60;1.20;;;35.10;36.90;;;;;;5074707;28;20466;-46
2022/07/12 10:09:41;;;;;;;2.83;1.10;;;35.10;37.60;;;;;;5074728;28;20491;-50
2022/07/12 10:12:09;;;;;;;2.40;1.23;;;34.80;37.80;;;;;;5071937;28;20482;-48
2022/07/12 10:14:37;;;;;;;1.30;0.93;;;34.50;38.60;;;;;;5074778;28;20506;-47
2022/07/12 10:17:09;;;;;;;1.50;1.20;;;34.50;39.30;;;;;;5074786;28;20440;-43
2022/07/12 10:19:37;;;;;;;3.43;1.27;;;34.80;38.70;;;;;;5074724;28;20451;-46
2022/07/12 10:22:06;;;;;;;2.17;1.47;;;34.90;38.30;;;;;;5054593;28;20475;-43
2022/07/12 10:24:51;;;;;;;1.77;1.17;;;34.80;39.30;;;;;;5053425;28;20437;-50
2022/07/12 10:27:32;;;;;;;2.03;1.37;;;34.60;40.10;;;;;;5054646;28;20444;-47
2022/07/12 10:30:20;;;;;;;2.13;1.23;;;34.60;39.90;;;;;;5057119;28;20464;-52
2022/07/12 10:32:49;;;;;;;2.33;1.37;;;34.60;38.50;;;;;;5071761;28;20470;-45
2022/07/12 10:35:22;;;;;;;2.80;1.57;;;34.70;38.70;;;;;;5074343;28;20489;-39
2022/07/12 10:38:15;;;;;;;1.80;1.30;;;34.60;38.80;;;;;;5073230;28;20486;-47
2022/07/12 10:40:43;;;;;;;1.63;1.20;;;34.50;38.50;;;;;;5070801;28;20435;-47
2022/07/12 10:43:16;;;;;;;2.13;1.17;;;34.20;38.10;;;;;;5073659;28;20451;-47
2022/07/12 10:45:44;;;;;;;1.40;1.27;;;33.30;38.80;;;;;;5069194;28;20454;-43
2022/07/12 10:48:24;;;;;;;2.27;1.20;;;32.80;40.10;;;;;;5074260;28;20446;-48
2022/07/12 10:51:15;;;;;;;2.33;2.10;;;32.30;40.40;;;;;;5072498;28;20485;-48
2022/07/12 10:53:42;;;;;;;1.50;1.33;;;32.00;41.30;;;;;;5071223;28;20443;-52
2022/07/12 10:56:10;;;;;;;1.53;1.30;;;31.80;41.80;;;;;;5073987;28;20463;-41
2022/07/12 10:58:38;;;;;;;2.90;1.43;;;31.60;42.20;;;;;;5074114;28;20412;-48
2022/07/12 11:01:08;;;;;;;3.10;1.47;;;31.30;42.40;;;;;;5074473;28;20442;-46
2022/07/12 11:03:40;;;;;;;1.40;1.17;;;31.00;41.80;;;;;;5074104;28;20423;-48
2022/07/12 11:06:10;;;;;;;1.70;1.07;;;30.70;42.90;;;;;;5074273;28;20462;-46
2022/07/12 11:08:55;;;;;;;1.60;1.47;;;30.50;43.70;;;;;;5074331;28;20434;-48
2022/07/12 11:11:22;;;;;;;2.03;1.17;;;30.40;44.90;;;;;;5073974;28;20463;-53
2022/07/12 11:13:49;;;;;;;1.40;1.30;;;30.30;44.70;;;;;;5073617;28;20565;-47
2022/07/12 11:16:18;;;;;;;2.17;1.10;;;30.00;45.00;;;;;;5074549;28;20523;-44
2022/07/12 11:18:45;;;;;;;1.90;1.20;;;29.90;46.20;;;;;;5073371;28;20530;-46
2022/07/12 11:21:14;;;;;;;1.10;1.00;;;30.10;45.60;;;;;;5073237;28;20490;-41
2022/07/12 11:23:41;;;;;;;2.20;1.17;;;29.90;45.40;;;;;;5073546;28;20427;-44
2022/07/12 11:26:10;;;;;;;1.47;1.30;;;29.30;46.10;;;;;;5073638;28;20447;-41
2022/07/12 11:28:38;;;;;;;1.40;1.30;;;29.10;47.10;;;;;;5073634;28;20467;-47
2022/07/12 11:31:06;;;;;;;2.70;1.57;;;29.00;47.10;;;;;;5073219;28;20475;-43
2022/07/12 11:33:36;;;;;;;2.63;1.50;;;29.10;47.90;;;;;;5073983;28;20485;-48
2022/07/12 11:36:05;;;;;;;4.17;1.50;;;29.20;47.20;;;;;;5074089;28;20422;-44
2022/07/12 11:38:34;;;;;;;3.00;1.70;;;29.10;47.50;;;;;;5074165;28;20442;-52
2022/07/12 11:41:03;;;;;;;2.67;1.30;;;29.00;47.60;;;;;;5074403;28;20446;-45
2022/07/12 11:43:31;;;;;;;1.40;1.30;;;28.90;47.80;;;;;;5074213;28;20534;-55
2022/07/12 11:45:59;;;;;;;1.93;1.40;;;28.80;48.00;;;;;;5073575;28;20439;-48
2022/07/12 11:48:26;;;;;;;2.07;1.43;;;28.70;48.30;;;;;;5075203;28;20475;-49
2022/07/12 11:50:54;;;;;;;2.33;1.77;;;28.60;48.50;;;;;;5075216;28;20522;-43
2022/07/12 11:53:22;;;;;;;2.00;1.60;;;28.20;48.60;;;;;;5073657;28;20518;-43
2022/07/12 11:55:52;;;;;;;3.23;1.50;;;28.00;49.70;;;;;;5073574;28;20521;-47
2022/07/12 11:58:20;;;;;;;2.70;1.33;;;28.10;50.20;;;;;;5073528;28;20459;-45
2022/07/12 12:00:49;;;;;;;3.87;1.40;;;28.40;50.20;;;;;;5074018;28;20522;-42
2022/07/12 12:03:17;;;;;;;1.47;1.20;;;28.40;49.50;;;;;;5074540;28;20435;-46
2022/07/12 12:05:45;;;;;;;3.93;1.60;;;28.40;49.90;;;;;;5073918;28;20456;-50
2022/07/12 12:08:14;;;;;;;2.03;1.23;;;28.40;49.20;;;;;;5074470;28;20428;-44
2022/07/12 12:10:42;;;;;;;1.83;1.30;;;28.50;49.40;;;;;;5073423;28;20487;-42
2022/07/12 12:13:16;;;;;;;2.70;1.63;;;28.50;49.70;;;;;;5074078;28;20502;-45
2022/07/12 12:15:51;;;;;;;2.50;1.10;;;28.50;49.50;;;;;;5061951;28;20443;-51
2022/07/12 12:18:28;;;;;;;1.47;1.00;;;28.30;49.80;;;;;;5061192;28;20477;-41
2022/07/12 12:20:58;;;;;;;2.50;1.00;;;28.20;49.20;;;;;;5072622;28;20462;-38
2022/07/12 12:23:25;;;;;;;1.93;0.90;;;28.20;49.50;;;;;;5073795;28;20451;-47
2022/07/12 12:25:52;;;;;;;1.90;1.07;;;28.20;49.80;;;;;;5073932;28;20439;-42
2022/07/12 12:28:21;;;;;;;1.60;1.17;;;28.20;49.60;;;;;;5074129;28;20443;-48
2022/07/12 12:30:51;;;;;;;3.73;1.33;;;28.10;49.30;;;;;;5074217;28;21125;-50
2022/07/12 12:33:34;;;;;;;2.50;1.10;;;28.10;49.20;;;;;;5077619;28;20424;-38
2022/07/12 12:36:16;;;;;;;5.73;1.30;;;28.20;49.60;;;;;;5077464;28;20513;-48
2022/07/12 12:38:43;;;;;;;1.47;1.30;;;28.30;50.00;;;;;;5076341;28;20427;-49
2022/07/12 12:41:10;;;;;;;1.57;1.47;;;28.40;49.60;;;;;;5077406;28;20495;-48
2022/07/12 12:43:39;;;;;;;1.97;1.40;;;28.40;49.00;;;;;;5076905;28;20439;-51
2022/07/12 12:46:06;;;;;;;3.10;1.60;;;28.40;50.00;;;;;;5076972;28;20534;-39
2022/07/12 12:48:34;;;;;;;1.60;1.20;;;28.40;50.20;;;;;;5095783;28;20431;-47
2022/07/12 12:51:06;;;;;;;1.40;1.30;;;28.40;49.40;;;;;;5096732;28;20506;-47
2022/07/12 12:53:33;;;;;;;1.43;1.07;;;28.50;50.50;;;;;;5096609;28;20508;-52
2022/07/12 12:56:00;;;;;;;1.63;1.40;;;28.40;49.30;;;;;;5096866;28;20509;-51
2022/07/12 12:58:27;;;;;;;1.87;1.20;;;28.50;49.50;;;;;;5096019;28;20505;-44
2022/07/12 13:00:57;;;;;;;3.33;1.20;;;28.40;49.80;;;;;;5095451;28;20485;-41
2022/07/12 13:03:25;;;;;;;2.50;1.10;;;28.40;49.10;;;;;;5096179;28;20497;-49
2022/07/12 13:05:52;;;;;;;1.77;1.40;;;28.40;49.00;;;;;;5096792;28;20469;-44
2022/07/12 13:08:21;;;;;;;2.03;1.53;;;28.30;49.00;;;;;;5097335;28;20446;-46
2022/07/12 13:11:18;;;;;;;1.40;1.10;;;28.20;49.50;;;;;;5096209;28;20514;-48